Latest Weather Observations for Brisbane Airport

IDQ60901

Issued at 4:11 pm EST Tuesday 23 October 2018 (issued every 10 minutes, with the page automatically refreshed every 10 minutes)

About weather observations | Map of Brisbane area stations | Latest observations for Brisbane area | Other Formats
Station Details ID: 040842 Name: BRISBANE AERO Lat: -27.39 Lon: 153.13 Height: 4.51 m
Data from the previous 72 hours. | See also: Recent months at Brisbane Airport
Date/Time
EST
Temp
°C
App
Temp
°C
Dew
Point
°C
Rel
Hum
%
Delta-T
°C
Wind Press
QNH
hPa
Press
MSL
hPa
Rain since
9am
mm
Dir  Spd
km/h
Gust
km/h
Spd
kts
Gust
kts
23/04:00pm 24.6 23.3 18.1 67 4.1 NE 22 28 12 15 1013.6 1013.6 0.0
23/03:30pm 25.1 24.2 18.3 66 4.3 NE 20 28 11 15 1013.6 1013.6 0.0
23/03:00pm 25.5 24.9 18.8 66 4.3 NE 20 28 11 15 1013.7 1013.7 0.0
23/02:30pm 25.4 24.1 19.0 67 4.1 NE 24 30 13 16 1013.8 1013.8 0.0
23/02:00pm 25.7 24.8 18.1 63 4.8 NE 20 28 11 15 1014.1 1014.1 0.0
23/01:30pm 25.7 24.8 18.1 63 4.8 NE 20 28 11 15 1014.6 1014.6 0.0
23/01:00pm 25.9 24.7 17.6 60 5.2 NE 20 28 11 15 1015.0 1015.0 0.0
23/12:30pm 25.5 24.0 16.4 57 5.6 NE 19 22 10 12 1015.4 1015.4 0.0
23/12:00pm 25.7 24.5 17.4 60 5.2 NNE 20 28 11 15 1015.6 1015.6 0.0
23/11:30am 25.6 24.3 16.7 58 5.5 NNE 19 22 10 12 1016.0 1016.0 0.0
23/11:00am 25.8 25.3 17.7 61 5.1 NE 17 22 9 12 1016.4 1016.4 0.0
23/10:30am 24.7 24.9 16.7 61 4.9 E 11 17 6 9 1016.8 1016.8 0.0
23/10:00am 24.7 24.9 17.6 64 4.4 E 13 22 7 12 1017.2 1017.2 0.0
23/09:30am 24.6 25.4 17.2 63 4.6 E 9 17 5 9 1017.3 1017.3 0.0
23/09:00am 24.7 25.3 16.7 61 4.9 SE 9 15 5 8 1017.3 1017.3 0.0
23/08:30am 24.1 25.1 16.8 63 4.5 SSE 7 11 4 6 1017.3 1017.3 0.0
23/08:00am 22.9 23.6 17.0 69 3.6 S 9 15 5 8 1017.3 1017.3 0.0
23/07:30am 22.2 22.3 16.4 69 3.5 S 11 15 6 8 1017.1 1017.1 0.0
23/07:00am 21.1 21.1 16.3 74 2.9 S 11 15 6 8 1016.9 1016.9 0.0
23/06:30am 20.1 19.9 16.8 81 2.0 SSW 13 17 7 9 1016.8 1016.8 0.0
23/06:00am 18.7 19.0 16.9 89 1.1 SSW 11 15 6 8 1016.5 1016.5 0.0
23/05:30am 18.3 18.6 17.0 92 0.8 SSW 11 15 6 8 1016.1 1016.1 0.0
23/05:00am 18.4 18.7 16.9 91 0.9 SSW 11 13 6 7 1015.7 1015.7 0.0
23/04:30am 18.9 19.3 17.3 90 1.0 SSW 11 15 6 8 1015.5 1015.5 0.0
23/04:00am 18.0 17.8 16.8 93 0.7 SSW 13 15 7 8 1015.4 1015.4 0.0
23/03:30am 18.7 19.5 17.2 91 0.9 SSW 9 11 5 6 1015.2 1015.2 0.0
23/03:00am 19.1 20.2 17.1 88 1.2 SSW 7 9 4 5 1015.2 1015.2 0.0
23/02:30am 19.0 19.8 17.2 89 1.1 SSW 9 11 5 6 1015.2 1015.2 0.0
23/02:00am 18.2 19.3 17.0 93 0.7 SSW 7 9 4 5 1015.4 1015.4 0.0
23/01:30am 18.2 18.9 17.0 93 0.7 SSW 9 11 5 6 1015.5 1015.5 0.0
23/01:00am 18.1 18.8 17.1 94 0.6 SSW 9 11 5 6 1015.9 1015.9 0.0
23/12:30am 19.0 20.2 17.4 90 1.0 SSW 7 11 4 6 1016.2 1016.2 0.0
23/12:00am 19.2 19.8 17.6 90 1.0 SSW 11 13 6 7 1016.3 1016.3 0.0
 
Date/Time
EST
Temp
°C
App
Temp
°C
Dew
Point
°C
Rel
Hum
%
Delta-T
°C
Wind Press
QNH
hPa
Press
MSL
hPa
Rain since
9am
mm
Dir  Spd
km/h
Gust
km/h
Spd
kts
Gust
kts
22/11:30pm 19.8 20.9 18.0 89 1.1 SSW 9 11 5 6 1016.5 1016.5 0.0
22/11:00pm 19.9 20.9 17.8 88 1.3 SSW 9 11 5 6 1016.6 1016.6 0.0
22/10:30pm 20.5 21.6 18.1 86 1.5 SSE 9 13 5 7 1016.7 1016.7 0.0
22/10:00pm 21.4 21.7 18.0 81 2.1 SE 13 19 7 10 1016.8 1016.8 0.0
22/09:30pm 21.7 22.4 18.0 79 2.3 ESE 11 20 6 11 1016.8 1016.8 0.0
22/09:00pm 21.9 22.2 17.9 78 2.5 ESE 13 20 7 11 1016.8 1016.8 0.0
22/08:30pm 22.0 22.4 18.1 78 2.4 ESE 13 22 7 12 1016.5 1016.5 0.0
22/08:00pm 22.1 22.4 17.9 77 2.6 ESE 13 24 7 13 1016.4 1016.4 0.0
22/07:30pm 22.1 23.2 17.9 77 2.6 E 9 15 5 8 1016.3 1016.3 0.0
22/07:00pm 22.0 22.3 17.8 77 2.6 ESE 13 19 7 10 1015.8 1015.8 0.0
22/06:30pm 22.1 22.4 17.9 77 2.6 ESE 13 28 7 15 1015.4 1015.4 0.0
22/06:00pm 22.4 22.3 17.9 75 2.8 ESE 15 22 8 12 1015.1 1015.1 0.0
22/05:30pm 22.8 22.2 17.6 72 3.2 ESE 17 32 9 17 1014.9 1014.9 0.0
22/05:00pm 23.3 22.4 17.7 71 3.5 ESE 19 28 10 15 1014.6 1014.6 0.0
22/04:30pm 23.5 22.5 17.5 69 3.7 ESE 19 28 10 15 1014.2 1014.2 0.0
22/04:00pm 24.0 22.8 17.4 66 4.1 ESE 20 30 11 16 1014.0 1014.0 0.0
22/03:30pm 24.0 22.6 17.0 65 4.3 ESE 20 33 11 18 1013.9 1013.9 0.0
22/03:00pm 24.7 24.6 17.8 65 4.3 E 15 22 8 12 1013.8 1013.8 0.0
22/02:30pm 25.3 24.2 17.3 61 5.0 ENE 19 28 10 15 1013.9 1013.9 0.0
22/02:00pm 25.8 25.1 16.4 56 5.8 E 15 22 8 12 1013.9 1013.9 0.0
22/01:30pm 25.1 23.8 15.9 56 5.6 NE 17 24 9 13 1014.2 1014.2 0.0
22/01:00pm 25.1 24.1 16.7 59 5.2 NE 17 24 9 13 1014.4 1014.4 0.0
22/12:30pm 24.8 23.3 16.3 59 5.2 NNE 19 22 10 12 1014.7 1014.7 0.0
22/12:00pm 24.8 23.9 17.8 65 4.4 NNE 19 24 10 13 1015.1 1015.1 0.0
22/11:30am 24.2 22.9 16.9 63 4.5 NNE 19 22 10 12 1015.2 1015.2 0.0
22/11:00am 24.9 25.4 15.5 56 5.7 S 7 17 4 9 1015.7 1015.7 0.0
22/10:30am 24.5 25.0 15.5 57 5.4 S 7 13 4 7 1016.0 1016.0 0.0
22/10:00am 24.1 24.6 15.6 59 5.1 S 7 30 4 16 1016.2 1016.2 0.0
22/09:30am 23.6 23.1 15.8 61 4.7 SW 13 19 7 10 1016.3 1016.3 0.0
22/09:00am 22.9 22.5 15.2 62 4.6 SSW 11 17 6 9 1016.5 1016.5 12.2
22/08:30am 22.3 21.5 16.2 68 3.7 SW 15 22 8 12 1016.5 1016.5 12.2
22/08:00am 21.4 21.0 16.3 72 3.1 SW 13 19 7 10 1016.3 1016.3 12.2
22/07:30am 20.1 19.7 16.3 79 2.3 SSW 13 19 7 10 1016.2 1016.2 12.2
22/07:00am 18.9 19.5 16.7 87 1.3 SSW 9 13 5 7 1016.1 1016.1 12.2
22/06:30am 17.4 18.1 16.2 93 0.7 SW 7 11 4 6 1016.1 1016.1 12.2
22/06:00am 16.0 17.7 15.3 96 0.4 CALM 0 0 0 0 1015.8 1015.8 12.2
22/05:30am 15.0 15.2 14.6 97 0.2 W 7 9 4 5 1015.3 1015.3 12.2
22/05:00am 14.7 16.0 14.2 97 0.3 CALM 0 0 0 0 1015.0 1015.0 12.2
22/04:30am 14.9 16.3 14.5 97 0.2 CALM 0 0 0 0 1014.7 1014.7 12.2
22/04:00am 15.0 16.4 14.5 97 0.3 CALM 0 0 0 0 1014.3 1014.3 12.2
22/03:30am 14.9 16.3 14.4 97 0.3 CALM 0 6 0 3 1014.3 1014.3 12.2
22/03:00am 15.1 15.3 14.6 97 0.3 WSW 7 9 4 5 1014.1 1014.1 12.2
22/02:30am 15.3 15.7 14.8 97 0.3 W 6 9 3 5 1014.0 1014.0 12.2
22/02:00am 15.4 16.2 14.9 97 0.3 W 4 9 2 5 1014.2 1014.2 12.2
22/01:30am 16.1 16.2 15.4 96 0.4 NW 9 11 5 6 1014.2 1014.2 12.2
22/01:00am 16.1 16.5 15.4 96 0.4 SW 7 11 4 6 1014.6 1014.6 12.2
22/12:30am 16.9 16.8 15.9 94 0.6 S 11 13 6 7 1014.9 1014.9 12.2
22/12:00am 16.6 16.5 15.9 96 0.4 S 11 13 6 7 1015.0 1015.0 12.2
 
Date/Time
EST
Temp
°C
App
Temp
°C
Dew
Point
°C
Rel
Hum
%
Delta-T
°C
Wind Press
QNH
hPa
Press
MSL
hPa
Rain since
9am
mm
Dir  Spd
km/h
Gust
km/h
Spd
kts
Gust
kts
21/11:30pm 16.3 16.7 15.4 94 0.5 SW 7 9 4 5 1015.2 1015.2 12.2
21/11:00pm 16.7 17.3 15.8 94 0.5 W 7 11 4 6 1015.3 1015.3 12.2
21/10:30pm 16.6 18.2 15.9 96 0.4 SSW 2 7 1 4 1015.5 1015.5 12.2
21/10:00pm 16.7 16.8 15.5 93 0.7 S 9 11 5 6 1015.7 1015.7 12.2
21/09:30pm 17.1 16.6 15.9 93 0.7 S 13 17 7 9 1015.7 1015.7 12.2
21/09:00pm 17.2 16.7 16.0 93 0.7 W 13 17 7 9 1015.4 1015.4 12.2
21/08:30pm 17.6 17.2 16.1 91 0.9 WNW 13 17 7 9 1015.2 1015.2 12.2
21/08:00pm 17.7 18.3 16.7 94 0.6 W 9 13 5 7 1014.7 1014.7 12.2
21/07:30pm 17.8 17.2 16.6 93 0.7 WNW 15 19 8 10 1014.7 1014.7 12.2
21/07:00pm 17.9 18.5 16.7 93 0.7 NW 9 15 5 8 1014.1 1014.1 12.2
21/06:30pm 18.1 19.1 16.8 92 0.8 SW 7 7 4 4 1013.7 1013.7 12.2
21/06:00pm 19.0 20.1 17.0 88 1.2 SSE 7 9 4 5 1013.2 1013.2 12.2
21/05:30pm 19.1 21.5 17.0 88 1.3 CALM 0 0 0 0 1013.4 1013.4 12.2
21/05:00pm 18.5 18.6 16.5 88 1.2 E 11 19 6 10 1012.6 1012.6 12.2
21/04:30pm 17.7 18.8 16.7 94 0.6 E 6 9 3 5 1012.6 1012.6 11.0
21/04:00pm 17.8 17.9 16.5 92 0.8 SW 11 15 6 8 1013.4 1013.4 9.2
21/03:42pm 18.0 14.6 16.8 93 0.7 SW 30 37 16 20 1012.8 1012.8 8.0
21/03:30pm 18.4 14.2 17.2 93 0.7 WSW 35 61 19 33 1012.7 1012.7 7.0
21/03:18pm 19.2 15.5 16.9 86 1.4 WSW 32 57 17 31 1012.9 1012.9 3.6
21/03:16pm 19.6 17.0 17.8 89 1.1 W 28 48 15 26 1012.6 1012.6 3.0
21/03:13pm 20.2 18.8 18.8 92 0.9 WNW 24 35 13 19 1012.6 1012.6 2.4
21/03:00pm 20.3 18.7 17.5 84 1.7 N 22 32 12 17 1011.5 1011.5 0.8
21/02:30pm 23.0 21.6 18.0 73 3.1 NNE 22 30 12 16 1010.7 1010.7 0.0
21/02:00pm 23.8 22.2 17.5 68 3.9 NE 22 30 12 16 1011.3 1011.3 0.0
21/01:30pm 24.6 22.4 18.6 69 3.8 NNE 28 33 15 18 1011.2 1011.2 0.0
21/01:00pm 26.2 23.5 14.5 48 7.0 NNE 22 32 12 17 1012.0 1012.0 0.0
21/12:30pm 26.0 24.0 15.6 52 6.3 NE 20 26 11 14 1012.9 1012.9 0.0
21/12:00pm 26.3 24.5 15.4 51 6.6 NE 19 26 10 14 1013.5 1013.5 0.0
21/11:30am 25.6 24.3 15.9 55 5.9 NE 17 20 9 11 1013.9 1013.9 0.0
21/11:00am 26.2 25.2 16.7 56 5.9 NE 17 19 9 10 1014.3 1014.3 0.0
21/10:30am 26.8 26.9 15.5 50 6.9 N 9 15 5 8 1014.6 1014.6 0.0
21/10:00am 26.0 26.9 15.2 51 6.5 SW 4 11 2 6 1014.8 1014.8 0.0
21/09:30am 25.2 27.4 16.4 58 5.4 CALM 0 7 0 4 1014.7 1014.7 0.0
21/09:00am 25.3 27.0 17.1 60 5.1 W 4 11 2 6 1014.6 1014.6 0.0
21/08:30am 24.1 24.5 16.4 62 4.7 W 9 13 5 7 1014.5 1014.5 0.0
21/08:00am 23.7 24.6 17.6 68 3.8 NW 9 13 5 7 1014.5 1014.5 0.0
21/07:30am 22.1 24.6 17.2 74 3.0 CALM 0 9 0 5 1014.4 1014.4 0.0
21/07:00am 21.2 21.2 17.1 77 2.5 WNW 13 19 7 10 1014.9 1014.9 0.0
21/06:30am 20.2 18.5 17.1 82 1.9 W 22 30 12 16 1015.2 1015.2 0.0
21/06:00am 19.8 19.0 17.0 84 1.7 WSW 17 26 9 14 1014.3 1014.3 0.0
21/05:30am 20.4 20.4 17.1 81 2.0 WNW 13 17 7 9 1013.6 1013.6 0.0
21/05:00am 20.7 19.4 16.7 78 2.4 SSW 19 35 10 19 1012.0 1012.0 0.0
21/04:30am 19.2 20.5 17.2 88 1.2 NNE 6 19 3 10 1012.9 1012.9 0.0
21/04:00am 19.1 21.5 17.1 88 1.2 CALM 0 0 0 0 1014.1 1014.1 0.0
21/03:30am 19.7 20.8 17.1 85 1.6 WNW 7 9 4 5 1014.7 1014.7 0.0
21/03:00am 20.0 20.8 17.2 84 1.7 W 9 11 5 6 1014.8 1014.8 0.0
21/02:30am 20.1 20.8 17.0 82 1.9 WNW 9 11 5 6 1014.7 1014.7 0.0
21/02:00am 19.6 20.3 17.1 85 1.5 NNE 9 15 5 8 1014.7 1014.7 0.0
21/01:30am 19.3 19.6 17.0 86 1.4 W 11 13 6 7 1015.2 1015.2 0.0
21/01:00am 19.6 20.7 17.0 85 1.6 WNW 7 7 4 4 1015.0 1015.0 0.0
21/12:30am 19.6 20.2 16.8 84 1.7 W 9 13 5 7 1015.2 1015.2 0.0
21/12:00am 19.8 19.7 17.0 84 1.7 WNW 13 17 7 9 1015.2 1015.2 0.0
 
Date/Time
EST
Temp
°C
App
Temp
°C
Dew
Point
°C
Rel
Hum
%
Delta-T
°C
Wind Press
QNH
hPa
Press
MSL
hPa
Rain since
9am
mm
Dir  Spd
km/h
Gust
km/h
Spd
kts
Gust
kts
20/11:30pm 20.9 20.5 18.0 83 1.8 N 17 26 9 14 1015.0 1015.0 0.0
20/11:00pm 21.1 19.7 18.0 82 1.9 N 22 32 12 17 1015.2 1015.2 0.0
20/10:30pm 20.7 19.5 17.6 82 1.9 N 20 28 11 15 1015.1 1015.1 0.0
20/10:00pm 20.3 19.0 17.2 82 1.9 N 20 26 11 14 1015.0 1015.0 0.0
20/09:30pm 20.5 19.6 16.9 80 2.2 N 17 20 9 11 1015.5 1015.5 0.0
20/09:00pm 20.3 19.3 16.7 80 2.2 N 17 22 9 12 1015.8 1015.8 0.0
20/08:30pm 20.6 19.3 16.8 79 2.3 N 19 22 10 12 1015.7 1015.7 0.0
20/08:00pm 20.6 19.4 17.0 80 2.2 N 19 26 10 14 1015.8 1015.8 0.0
20/07:30pm 20.8 20.0 17.0 79 2.3 NNE 17 22 9 12 1015.5 1015.5 0.0
20/07:00pm 20.9 19.4 16.8 77 2.5 NNE 20 26 11 14 1015.3 1015.3 0.0
20/06:30pm 21.1 19.2 16.8 76 2.6 N 22 33 12 18 1015.0 1015.0 0.0
20/06:00pm 21.2 19.0 16.9 76 2.6 NNE 24 30 13 16 1014.4 1014.4 0.0
20/05:30pm 21.7 20.3 17.0 74 2.9 NNE 20 30 11 16 1014.1 1014.1 0.0
20/05:00pm 22.5 20.6 16.8 70 3.5 NNE 22 28 12 15 1013.9 1013.9 0.0
20/04:30pm 22.9 20.7 16.9 69 3.7 NNE 24 30 13 16 1013.9 1013.9 0.0

Latest Capital City Observations: Canberra | Sydney | Melbourne | Brisbane | Adelaide | Perth | Hobart | Darwin

Other Formats:

Comma delimited format used in spreadsheet applications
http://www.bom.gov.au/fwo/IDQ60901/IDQ60901.94578.axf

JavaScript Object Notation format (JSON) in row-major order
http://www.bom.gov.au/fwo/IDQ60901/IDQ60901.94578.json